sensor_id;sensor_type;location;lat;lon;timestamp;P1;durP1;ratioP1;P2;durP2;ratioP2
75864;SDS011;64510;46.704;38.274;2023-04-25T00:02:12;40.75;;;16.67;;
75864;SDS011;64510;46.704;38.274;2023-04-25T00:04:40;40.05;;;15.13;;
75864;SDS011;64510;46.704;38.274;2023-04-25T00:07:06;56.05;;;17.60;;
75864;SDS011;64510;46.704;38.274;2023-04-25T00:09:32;46.10;;;15.77;;
75864;SDS011;64510;46.704;38.274;2023-04-25T00:11:58;46.75;;;15.65;;
75864;SDS011;64510;46.704;38.274;2023-04-25T00:14:24;44.03;;;17.75;;
75864;SDS011;64510;46.704;38.274;2023-04-25T00:16:50;49.17;;;17.15;;
75864;SDS011;64510;46.704;38.274;2023-04-25T00:19:17;57.38;;;19.33;;
75864;SDS011;64510;46.704;38.274;2023-04-25T00:21:43;65.00;;;18.85;;
75864;SDS011;64510;46.704;38.274;2023-04-25T00:24:11;61.47;;;22.45;;
75864;SDS011;64510;46.704;38.274;2023-04-25T00:26:38;76.85;;;24.25;;
75864;SDS011;64510;46.704;38.274;2023-04-25T00:29:03;69.68;;;23.38;;
75864;SDS011;64510;46.704;38.274;2023-04-25T00:31:30;71.20;;;24.02;;
75864;SDS011;64510;46.704;38.274;2023-04-25T00:33:56;71.78;;;23.23;;
75864;SDS011;64510;46.704;38.274;2023-04-25T00:36:22;82.63;;;26.27;;
75864;SDS011;64510;46.704;38.274;2023-04-25T00:38:48;78.38;;;25.40;;
75864;SDS011;64510;46.704;38.274;2023-04-25T00:41:14;86.35;;;26.17;;
75864;SDS011;64510;46.704;38.274;2023-04-25T00:43:42;86.22;;;24.88;;
75864;SDS011;64510;46.704;38.274;2023-04-25T00:46:11;76.22;;;23.13;;
75864;SDS011;64510;46.704;38.274;2023-04-25T00:48:37;83.63;;;24.60;;
75864;SDS011;64510;46.704;38.274;2023-04-25T00:51:03;92.68;;;26.75;;
75864;SDS011;64510;46.704;38.274;2023-04-25T00:53:29;71.65;;;24.20;;
75864;SDS011;64510;46.704;38.274;2023-04-25T00:55:57;97.28;;;25.98;;
75864;SDS011;64510;46.704;38.274;2023-04-25T00:58:23;91.13;;;25.40;;
75864;SDS011;64510;46.704;38.274;2023-04-25T01:00:50;85.25;;;23.20;;
75864;SDS011;64510;46.704;38.274;2023-04-25T01:03:19;85.93;;;23.65;;
75864;SDS011;64510;46.704;38.274;2023-04-25T01:05:46;92.70;;;25.65;;
75864;SDS011;64510;46.704;38.274;2023-04-25T01:08:12;74.60;;;22.40;;
75864;SDS011;64510;46.704;38.274;2023-04-25T01:10:39;86.22;;;22.85;;
75864;SDS011;64510;46.704;38.274;2023-04-25T01:13:06;59.60;;;18.80;;
75864;SDS011;64510;46.704;38.274;2023-04-25T01:15:33;72.65;;;21.60;;
75864;SDS011;64510;46.704;38.274;2023-04-25T01:18:00;76.85;;;19.63;;
75864;SDS011;64510;46.704;38.274;2023-04-25T01:20:27;79.22;;;22.75;;
75864;SDS011;64510;46.704;38.274;2023-04-25T01:22:55;69.82;;;21.85;;
75864;SDS011;64510;46.704;38.274;2023-04-25T01:25:22;58.42;;;20.10;;
75864;SDS011;64510;46.704;38.274;2023-04-25T01:27:49;70.22;;;22.38;;
75864;SDS011;64510;46.704;38.274;2023-04-25T01:30:15;58.17;;;18.55;;
75864;SDS011;64510;46.704;38.274;2023-04-25T01:32:41;53.17;;;15.98;;
75864;SDS011;64510;46.704;38.274;2023-04-25T01:35:09;49.50;;;16.10;;
75864;SDS011;64510;46.704;38.274;2023-04-25T01:37:39;55.00;;;18.42;;
75864;SDS011;64510;46.704;38.274;2023-04-25T01:40:08;45.88;;;14.02;;
75864;SDS011;64510;46.704;38.274;2023-04-25T01:42:36;39.08;;;12.93;;
75864;SDS011;64510;46.704;38.274;2023-04-25T01:45:03;56.70;;;17.98;;
75864;SDS011;64510;46.704;38.274;2023-04-25T01:47:30;67.18;;;17.85;;
75864;SDS011;64510;46.704;38.274;2023-04-25T01:49:56;50.17;;;17.10;;
75864;SDS011;64510;46.704;38.274;2023-04-25T01:52:22;54.92;;;19.33;;
75864;SDS011;64510;46.704;38.274;2023-04-25T01:54:48;70.20;;;22.10;;
75864;SDS011;64510;46.704;38.274;2023-04-25T01:57:15;59.95;;;17.42;;
75864;SDS011;64510;46.704;38.274;2023-04-25T01:59:43;71.57;;;21.35;;
75864;SDS011;64510;46.704;38.274;2023-04-25T02:02:32;53.65;;;14.85;;
75864;SDS011;64510;46.704;38.274;2023-04-25T02:04:58;46.65;;;16.20;;
75864;SDS011;64510;46.704;38.274;2023-04-25T02:07:26;54.00;;;17.38;;
75864;SDS011;64510;46.704;38.274;2023-04-25T02:09:52;65.47;;;19.05;;
75864;SDS011;64510;46.704;38.274;2023-04-25T02:12:21;73.00;;;21.77;;
75864;SDS011;64510;46.704;38.274;2023-04-25T02:15:06;45.22;;;16.13;;
75864;SDS011;64510;46.704;38.274;2023-04-25T02:17:39;65.15;;;20.02;;
75864;SDS011;64510;46.704;38.274;2023-04-25T02:20:05;51.15;;;16.13;;
75864;SDS011;64510;46.704;38.274;2023-04-25T02:22:32;49.25;;;17.42;;
75864;SDS011;64510;46.704;38.274;2023-04-25T02:24:59;56.17;;;17.20;;
75864;SDS011;64510;46.704;38.274;2023-04-25T02:27:25;65.25;;;19.13;;
75864;SDS011;64510;46.704;38.274;2023-04-25T02:29:51;65.95;;;20.67;;
75864;SDS011;64510;46.704;38.274;2023-04-25T02:32:17;58.97;;;18.77;;
75864;SDS011;64510;46.704;38.274;2023-04-25T02:34:43;66.53;;;16.42;;
75864;SDS011;64510;46.704;38.274;2023-04-25T02:37:09;65.28;;;16.83;;
75864;SDS011;64510;46.704;38.274;2023-04-25T02:39:35;60.33;;;17.83;;
75864;SDS011;64510;46.704;38.274;2023-04-25T02:42:01;39.45;;;14.38;;
75864;SDS011;64510;46.704;38.274;2023-04-25T02:44:28;36.95;;;11.63;;
75864;SDS011;64510;46.704;38.274;2023-04-25T02:46:54;42.80;;;15.00;;
75864;SDS011;64510;46.704;38.274;2023-04-25T02:49:22;53.55;;;14.63;;
75864;SDS011;64510;46.704;38.274;2023-04-25T02:51:48;46.47;;;13.27;;
75864;SDS011;64510;46.704;38.274;2023-04-25T02:54:14;31.85;;;12.10;;
75864;SDS011;64510;46.704;38.274;2023-04-25T02:56:45;36.30;;;13.43;;
75864;SDS011;64510;46.704;38.274;2023-04-25T02:59:20;32.53;;;11.63;;
75864;SDS011;64510;46.704;38.274;2023-04-25T03:01:46;46.40;;;13.30;;
75864;SDS011;64510;46.704;38.274;2023-04-25T03:04:12;39.17;;;12.57;;
75864;SDS011;64510;46.704;38.274;2023-04-25T03:06:38;27.10;;;10.25;;
75864;SDS011;64510;46.704;38.274;2023-04-25T03:09:05;22.27;;;11.00;;
75864;SDS011;64510;46.704;38.274;2023-04-25T03:11:31;32.85;;;10.77;;
75864;SDS011;64510;46.704;38.274;2023-04-25T03:13:57;19.92;;;8.88;;
75864;SDS011;64510;46.704;38.274;2023-04-25T03:16:23;40.85;;;11.50;;
75864;SDS011;64510;46.704;38.274;2023-04-25T03:18:49;21.33;;;8.65;;
75864;SDS011;64510;46.704;38.274;2023-04-25T03:21:16;25.27;;;9.73;;
75864;SDS011;64510;46.704;38.274;2023-04-25T03:23:43;24.33;;;9.07;;
75864;SDS011;64510;46.704;38.274;2023-04-25T03:26:08;30.52;;;11.63;;
75864;SDS011;64510;46.704;38.274;2023-04-25T03:28:35;24.02;;;10.40;;
75864;SDS011;64510;46.704;38.274;2023-04-25T03:31:01;31.00;;;10.27;;
75864;SDS011;64510;46.704;38.274;2023-04-25T03:33:27;25.20;;;10.07;;
75864;SDS011;64510;46.704;38.274;2023-04-25T03:35:53;27.58;;;9.23;;
75864;SDS011;64510;46.704;38.274;2023-04-25T03:38:19;27.00;;;10.20;;
75864;SDS011;64510;46.704;38.274;2023-04-25T03:40:45;34.15;;;9.18;;
75864;SDS011;64510;46.704;38.274;2023-04-25T03:43:11;25.50;;;9.18;;
75864;SDS011;64510;46.704;38.274;2023-04-25T03:45:41;20.10;;;8.88;;
75864;SDS011;64510;46.704;38.274;2023-04-25T03:48:08;16.48;;;8.13;;
75864;SDS011;64510;46.704;38.274;2023-04-25T03:50:34;21.20;;;8.13;;
75864;SDS011;64510;46.704;38.274;2023-04-25T03:53:00;13.82;;;5.20;;
75864;SDS011;64510;46.704;38.274;2023-04-25T03:55:41;18.63;;;6.38;;
75864;SDS011;64510;46.704;38.274;2023-04-25T03:58:07;19.80;;;7.97;;
75864;SDS011;64510;46.704;38.274;2023-04-25T04:00:34;20.00;;;7.28;;
75864;SDS011;64510;46.704;38.274;2023-04-25T04:03:01;12.57;;;6.63;;
75864;SDS011;64510;46.704;38.274;2023-04-25T04:05:27;17.23;;;6.28;;
75864;SDS011;64510;46.704;38.274;2023-04-25T04:07:55;16.13;;;6.53;;
75864;SDS011;64510;46.704;38.274;2023-04-25T04:10:22;15.77;;;7.53;;
75864;SDS011;64510;46.704;38.274;2023-04-25T04:12:48;17.98;;;6.88;;
75864;SDS011;64510;46.704;38.274;2023-04-25T04:15:13;23.08;;;9.40;;
75864;SDS011;64510;46.704;38.274;2023-04-25T04:17:42;19.20;;;7.38;;
75864;SDS011;64510;46.704;38.274;2023-04-25T04:20:08;24.63;;;8.70;;
75864;SDS011;64510;46.704;38.274;2023-04-25T04:22:35;17.73;;;7.80;;
75864;SDS011;64510;46.704;38.274;2023-04-25T04:25:06;19.42;;;7.50;;
75864;SDS011;64510;46.704;38.274;2023-04-25T04:27:51;18.45;;;8.43;;
75864;SDS011;64510;46.704;38.274;2023-04-25T04:30:39;17.38;;;7.85;;
75864;SDS011;64510;46.704;38.274;2023-04-25T04:33:07;22.90;;;9.88;;
75864;SDS011;64510;46.704;38.274;2023-04-25T04:35:34;25.10;;;8.40;;
75864;SDS011;64510;46.704;38.274;2023-04-25T04:38:01;25.50;;;9.02;;
75864;SDS011;64510;46.704;38.274;2023-04-25T04:43:09;21.08;;;8.15;;
75864;SDS011;64510;46.704;38.274;2023-04-25T04:46:02;25.70;;;10.05;;
75864;SDS011;64510;46.704;38.274;2023-04-25T04:49:00;20.98;;;9.18;;
75864;SDS011;64510;46.704;38.274;2023-04-25T04:51:52;28.70;;;9.45;;
75864;SDS011;64510;46.704;38.274;2023-04-25T04:54:36;25.83;;;10.13;;
75864;SDS011;64510;46.704;38.274;2023-04-25T04:57:21;22.02;;;10.75;;
75864;SDS011;64510;46.704;38.274;2023-04-25T05:00:22;17.33;;;9.30;;
75864;SDS011;64510;46.704;38.274;2023-04-25T05:03:08;19.00;;;9.43;;
75864;SDS011;64510;46.704;38.274;2023-04-25T05:05:47;24.63;;;10.02;;
75864;SDS011;64510;46.704;38.274;2023-04-25T05:08:33;19.85;;;10.20;;
75864;SDS011;64510;46.704;38.274;2023-04-25T05:11:19;18.63;;;8.55;;
75864;SDS011;64510;46.704;38.274;2023-04-25T05:14:15;17.85;;;9.35;;
75864;SDS011;64510;46.704;38.274;2023-04-25T05:17:03;16.70;;;8.43;;
75864;SDS011;64510;46.704;38.274;2023-04-25T05:19:53;15.90;;;8.43;;
75864;SDS011;64510;46.704;38.274;2023-04-25T05:22:53;11.90;;;7.07;;
75864;SDS011;64510;46.704;38.274;2023-04-25T05:25:39;12.70;;;8.15;;
75864;SDS011;64510;46.704;38.274;2023-04-25T05:28:12;11.30;;;6.90;;
75864;SDS011;64510;46.704;38.274;2023-04-25T05:30:52;8.77;;;5.50;;
75864;SDS011;64510;46.704;38.274;2023-04-25T05:33:28;9.15;;;6.38;;
75864;SDS011;64510;46.704;38.274;2023-04-25T05:35:54;11.75;;;5.57;;
75864;SDS011;64510;46.704;38.274;2023-04-25T05:38:20;9.20;;;5.65;;
75864;SDS011;64510;46.704;38.274;2023-04-25T05:41:12;7.75;;;5.07;;
75864;SDS011;64510;46.704;38.274;2023-04-25T05:44:01;11.77;;;5.05;;
75864;SDS011;64510;46.704;38.274;2023-04-25T05:46:47;7.68;;;4.25;;
75864;SDS011;64510;46.704;38.274;2023-04-25T05:49:30;6.18;;;4.05;;
75864;SDS011;64510;46.704;38.274;2023-04-25T05:52:17;5.43;;;3.97;;
75864;SDS011;64510;46.704;38.274;2023-04-25T05:55:02;5.63;;;3.95;;
75864;SDS011;64510;46.704;38.274;2023-04-25T05:57:30;4.80;;;3.38;;
75864;SDS011;64510;46.704;38.274;2023-04-25T05:59:56;5.63;;;4.03;;
75864;SDS011;64510;46.704;38.274;2023-04-25T06:02:38;6.03;;;4.45;;
75864;SDS011;64510;46.704;38.274;2023-04-25T06:05:04;7.95;;;5.00;;
75864;SDS011;64510;46.704;38.274;2023-04-25T06:07:31;21.58;;;9.30;;
75864;SDS011;64510;46.704;38.274;2023-04-25T06:09:57;11.27;;;5.95;;
75864;SDS011;64510;46.704;38.274;2023-04-25T06:12:24;10.55;;;6.28;;
75864;SDS011;64510;46.704;38.274;2023-04-25T06:14:51;11.25;;;7.15;;
75864;SDS011;64510;46.704;38.274;2023-04-25T06:17:17;8.68;;;4.78;;
75864;SDS011;64510;46.704;38.274;2023-04-25T06:19:43;8.30;;;5.10;;
75864;SDS011;64510;46.704;38.274;2023-04-25T06:22:09;5.80;;;4.07;;
75864;SDS011;64510;46.704;38.274;2023-04-25T06:24:38;8.23;;;5.30;;
75864;SDS011;64510;46.704;38.274;2023-04-25T06:27:04;7.38;;;5.30;;
75864;SDS011;64510;46.704;38.274;2023-04-25T06:29:30;10.95;;;5.78;;
75864;SDS011;64510;46.704;38.274;2023-04-25T06:31:56;8.70;;;5.13;;
75864;SDS011;64510;46.704;38.274;2023-04-25T06:34:23;7.95;;;5.55;;
75864;SDS011;64510;46.704;38.274;2023-04-25T06:36:49;10.40;;;5.78;;
75864;SDS011;64510;46.704;38.274;2023-04-25T06:39:15;6.68;;;4.78;;
75864;SDS011;64510;46.704;38.274;2023-04-25T06:41:42;10.93;;;5.75;;
75864;SDS011;64510;46.704;38.274;2023-04-25T06:44:26;8.95;;;6.22;;
75864;SDS011;64510;46.704;38.274;2023-04-25T06:46:54;11.18;;;6.32;;
75864;SDS011;64510;46.704;38.274;2023-04-25T06:49:21;9.75;;;5.68;;
75864;SDS011;64510;46.704;38.274;2023-04-25T06:51:47;17.35;;;7.95;;
75864;SDS011;64510;46.704;38.274;2023-04-25T06:54:13;12.85;;;6.80;;
75864;SDS011;64510;46.704;38.274;2023-04-25T06:56:48;10.55;;;6.40;;
75864;SDS011;64510;46.704;38.274;2023-04-25T06:59:15;13.07;;;7.70;;
75864;SDS011;64510;46.704;38.274;2023-04-25T07:01:42;14.98;;;8.48;;
75864;SDS011;64510;46.704;38.274;2023-04-25T07:04:17;15.13;;;8.25;;
75864;SDS011;64510;46.704;38.274;2023-04-25T07:06:53;15.10;;;8.65;;
75864;SDS011;64510;46.704;38.274;2023-04-25T07:09:31;11.52;;;6.18;;
75864;SDS011;64510;46.704;38.274;2023-04-25T07:11:59;12.85;;;6.63;;
75864;SDS011;64510;46.704;38.274;2023-04-25T07:14:27;13.00;;;8.35;;
75864;SDS011;64510;46.704;38.274;2023-04-25T07:16:53;13.98;;;8.10;;
75864;SDS011;64510;46.704;38.274;2023-04-25T07:19:23;11.98;;;7.18;;
75864;SDS011;64510;46.704;38.274;2023-04-25T07:21:53;15.15;;;8.52;;
75864;SDS011;64510;46.704;38.274;2023-04-25T07:24:20;12.27;;;6.38;;
75864;SDS011;64510;46.704;38.274;2023-04-25T07:26:47;15.38;;;7.38;;
75864;SDS011;64510;46.704;38.274;2023-04-25T07:29:29;11.50;;;7.57;;
75864;SDS011;64510;46.704;38.274;2023-04-25T07:31:58;11.70;;;7.43;;
75864;SDS011;64510;46.704;38.274;2023-04-25T07:34:24;15.35;;;8.15;;
75864;SDS011;64510;46.704;38.274;2023-04-25T07:36:50;12.73;;;7.40;;
75864;SDS011;64510;46.704;38.274;2023-04-25T07:39:16;15.98;;;8.40;;
75864;SDS011;64510;46.704;38.274;2023-04-25T07:41:43;11.30;;;8.52;;
75864;SDS011;64510;46.704;38.274;2023-04-25T07:44:14;12.52;;;8.30;;
75864;SDS011;64510;46.704;38.274;2023-04-25T07:46:40;12.15;;;6.68;;
75864;SDS011;64510;46.704;38.274;2023-04-25T07:49:06;12.75;;;7.65;;
75864;SDS011;64510;46.704;38.274;2023-04-25T07:51:33;12.00;;;6.97;;
75864;SDS011;64510;46.704;38.274;2023-04-25T07:54:04;12.73;;;6.63;;
75864;SDS011;64510;46.704;38.274;2023-04-25T07:56:33;13.00;;;6.82;;
75864;SDS011;64510;46.704;38.274;2023-04-25T07:59:00;12.60;;;7.65;;
75864;SDS011;64510;46.704;38.274;2023-04-25T08:01:26;15.68;;;9.20;;
75864;SDS011;64510;46.704;38.274;2023-04-25T08:03:59;14.02;;;8.13;;
75864;SDS011;64510;46.704;38.274;2023-04-25T08:06:34;11.73;;;7.43;;
75864;SDS011;64510;46.704;38.274;2023-04-25T08:09:12;14.02;;;8.10;;
75864;SDS011;64510;46.704;38.274;2023-04-25T08:11:41;14.77;;;8.50;;
75864;SDS011;64510;46.704;38.274;2023-04-25T08:14:09;21.15;;;9.70;;
75864;SDS011;64510;46.704;38.274;2023-04-25T08:16:39;17.48;;;9.23;;
75864;SDS011;64510;46.704;38.274;2023-04-25T08:19:06;14.77;;;8.63;;
75864;SDS011;64510;46.704;38.274;2023-04-25T08:21:32;12.80;;;7.57;;
75864;SDS011;64510;46.704;38.274;2023-04-25T08:24:02;14.98;;;8.13;;
75864;SDS011;64510;46.704;38.274;2023-04-25T08:26:32;14.90;;;9.02;;
75864;SDS011;64510;46.704;38.274;2023-04-25T08:28:58;12.20;;;6.68;;
75864;SDS011;64510;46.704;38.274;2023-04-25T08:31:24;11.80;;;7.00;;
75864;SDS011;64510;46.704;38.274;2023-04-25T08:33:56;11.38;;;6.32;;
75864;SDS011;64510;46.704;38.274;2023-04-25T08:36:35;8.68;;;5.32;;
75864;SDS011;64510;46.704;38.274;2023-04-25T08:39:01;6.97;;;4.10;;
75864;SDS011;64510;46.704;38.274;2023-04-25T08:41:27;9.77;;;4.20;;
75864;SDS011;64510;46.704;38.274;2023-04-25T08:43:54;5.25;;;3.78;;
75864;SDS011;64510;46.704;38.274;2023-04-25T08:46:23;3.83;;;2.92;;
75864;SDS011;64510;46.704;38.274;2023-04-25T08:49:16;6.40;;;5.18;;
75864;SDS011;64510;46.704;38.274;2023-04-25T08:51:46;6.97;;;4.25;;
75864;SDS011;64510;46.704;38.274;2023-04-25T08:54:14;5.05;;;3.38;;
75864;SDS011;64510;46.704;38.274;2023-04-25T08:56:42;9.70;;;4.47;;
75864;SDS011;64510;46.704;38.274;2023-04-25T08:59:12;7.40;;;3.60;;
75864;SDS011;64510;46.704;38.274;2023-04-25T09:01:44;8.25;;;4.80;;
75864;SDS011;64510;46.704;38.274;2023-04-25T09:04:11;5.97;;;3.75;;
75864;SDS011;64510;46.704;38.274;2023-04-25T09:06:39;8.02;;;2.78;;
75864;SDS011;64510;46.704;38.274;2023-04-25T09:09:06;6.18;;;2.63;;
75864;SDS011;64510;46.704;38.274;2023-04-25T09:11:33;3.38;;;2.53;;
75864;SDS011;64510;46.704;38.274;2023-04-25T09:14:18;6.72;;;4.10;;
75864;SDS011;64510;46.704;38.274;2023-04-25T09:17:23;5.55;;;3.08;;
75864;SDS011;64510;46.704;38.274;2023-04-25T09:19:55;5.70;;;3.17;;
75864;SDS011;64510;46.704;38.274;2023-04-25T09:22:31;5.00;;;3.35;;
75864;SDS011;64510;46.704;38.274;2023-04-25T09:24:57;6.22;;;2.80;;
75864;SDS011;64510;46.704;38.274;2023-04-25T09:27:29;4.05;;;3.15;;
75864;SDS011;64510;46.704;38.274;2023-04-25T09:30:04;6.80;;;4.10;;
75864;SDS011;64510;46.704;38.274;2023-04-25T09:32:46;10.85;;;4.10;;
75864;SDS011;64510;46.704;38.274;2023-04-25T09:35:23;5.72;;;3.30;;
75864;SDS011;64510;46.704;38.274;2023-04-25T09:37:53;4.95;;;3.70;;
75864;SDS011;64510;46.704;38.274;2023-04-25T09:40:45;6.93;;;4.35;;
75864;SDS011;64510;46.704;38.274;2023-04-25T09:43:22;5.55;;;4.15;;
75864;SDS011;64510;46.704;38.274;2023-04-25T09:45:53;7.25;;;4.28;;
75864;SDS011;64510;46.704;38.274;2023-04-25T09:48:25;8.63;;;4.30;;
75864;SDS011;64510;46.704;38.274;2023-04-25T09:51:13;8.98;;;5.85;;
75864;SDS011;64510;46.704;38.274;2023-04-25T09:53:45;5.47;;;3.65;;
75864;SDS011;64510;46.704;38.274;2023-04-25T09:56:24;10.15;;;4.50;;
75864;SDS011;64510;46.704;38.274;2023-04-25T09:58:55;5.45;;;3.30;;
75864;SDS011;64510;46.704;38.274;2023-04-25T10:01:22;4.82;;;3.80;;
75864;SDS011;64510;46.704;38.274;2023-04-25T10:04:05;6.45;;;3.45;;
75864;SDS011;64510;46.704;38.274;2023-04-25T10:07:06;7.68;;;3.63;;
75864;SDS011;64510;46.704;38.274;2023-04-25T10:09:36;4.47;;;3.60;;
75864;SDS011;64510;46.704;38.274;2023-04-25T10:12:05;6.40;;;3.40;;
75864;SDS011;64510;46.704;38.274;2023-04-25T10:14:32;5.38;;;3.83;;
75864;SDS011;64510;46.704;38.274;2023-04-25T10:16:59;4.97;;;3.85;;
75864;SDS011;64510;46.704;38.274;2023-04-25T10:19:25;5.20;;;3.80;;
75864;SDS011;64510;46.704;38.274;2023-04-25T10:21:54;5.72;;;3.72;;
75864;SDS011;64510;46.704;38.274;2023-04-25T10:24:21;4.47;;;3.65;;
75864;SDS011;64510;46.704;38.274;2023-04-25T10:26:47;10.18;;;5.22;;
75864;SDS011;64510;46.704;38.274;2023-04-25T10:29:21;4.07;;;3.50;;
75864;SDS011;64510;46.704;38.274;2023-04-25T10:31:48;6.18;;;4.40;;
75864;SDS011;64510;46.704;38.274;2023-04-25T10:34:15;4.10;;;3.22;;
75864;SDS011;64510;46.704;38.274;2023-04-25T10:36:50;4.72;;;3.38;;
75864;SDS011;64510;46.704;38.274;2023-04-25T10:39:24;6.05;;;3.42;;
75864;SDS011;64510;46.704;38.274;2023-04-25T10:41:56;4.80;;;3.47;;
75864;SDS011;64510;46.704;38.274;2023-04-25T10:46:52;5.78;;;3.47;;
75864;SDS011;64510;46.704;38.274;2023-04-25T10:49:28;4.27;;;3.80;;
75864;SDS011;64510;46.704;38.274;2023-04-25T10:54:52;6.75;;;4.70;;
75864;SDS011;64510;46.704;38.274;2023-04-25T11:00:11;5.40;;;3.58;;
75864;SDS011;64510;46.704;38.274;2023-04-25T11:02:41;4.95;;;3.50;;
75864;SDS011;64510;46.704;38.274;2023-04-25T11:08:00;5.43;;;3.67;;
75864;SDS011;64510;46.704;38.274;2023-04-25T11:10:32;4.53;;;3.13;;
75864;SDS011;64510;46.704;38.274;2023-04-25T11:13:00;4.03;;;3.45;;
75864;SDS011;64510;46.704;38.274;2023-04-25T11:15:26;5.45;;;2.90;;
75864;SDS011;64510;46.704;38.274;2023-04-25T11:17:53;5.95;;;3.35;;
75864;SDS011;64510;46.704;38.274;2023-04-25T11:20:20;4.47;;;3.70;;
75864;SDS011;64510;46.704;38.274;2023-04-25T11:22:46;6.95;;;3.50;;
75864;SDS011;64510;46.704;38.274;2023-04-25T11:25:13;3.75;;;3.20;;
75864;SDS011;64510;46.704;38.274;2023-04-25T11:27:52;4.85;;;4.00;;
75864;SDS011;64510;46.704;38.274;2023-04-25T11:30:20;5.78;;;3.90;;
75864;SDS011;64510;46.704;38.274;2023-04-25T11:32:46;4.78;;;3.67;;
75864;SDS011;64510;46.704;38.274;2023-04-25T11:35:13;8.05;;;4.63;;
75864;SDS011;64510;46.704;38.274;2023-04-25T11:37:39;7.43;;;4.32;;
75864;SDS011;64510;46.704;38.274;2023-04-25T11:40:06;4.60;;;3.42;;
75864;SDS011;64510;46.704;38.274;2023-04-25T11:42:38;3.97;;;3.65;;
75864;SDS011;64510;46.704;38.274;2023-04-25T11:45:05;6.85;;;3.92;;
75864;SDS011;64510;46.704;38.274;2023-04-25T11:47:32;7.53;;;4.57;;
75864;SDS011;64510;46.704;38.274;2023-04-25T11:49:59;7.15;;;4.88;;
75864;SDS011;64510;46.704;38.274;2023-04-25T11:55:22;9.50;;;4.18;;
75864;SDS011;64510;46.704;38.274;2023-04-25T11:57:48;10.85;;;5.65;;
75864;SDS011;64510;46.704;38.274;2023-04-25T12:00:18;4.53;;;3.97;;
75864;SDS011;64510;46.704;38.274;2023-04-25T12:02:46;6.07;;;5.47;;
75864;SDS011;64510;46.704;38.274;2023-04-25T12:05:19;6.75;;;4.95;;
75864;SDS011;64510;46.704;38.274;2023-04-25T12:07:46;6.70;;;5.70;;
75864;SDS011;64510;46.704;38.274;2023-04-25T12:10:15;14.43;;;6.22;;
75864;SDS011;64510;46.704;38.274;2023-04-25T12:12:43;11.38;;;5.63;;
75864;SDS011;64510;46.704;38.274;2023-04-25T12:15:17;8.35;;;6.50;;
75864;SDS011;64510;46.704;38.274;2023-04-25T12:17:53;10.75;;;6.13;;
75864;SDS011;64510;46.704;38.274;2023-04-25T12:20:21;8.25;;;6.53;;
75864;SDS011;64510;46.704;38.274;2023-04-25T12:22:49;12.15;;;7.55;;
75864;SDS011;64510;46.704;38.274;2023-04-25T12:25:38;11.40;;;6.57;;
75864;SDS011;64510;46.704;38.274;2023-04-25T12:33:35;12.07;;;8.18;;
75864;SDS011;64510;46.704;38.274;2023-04-25T12:38:37;12.57;;;7.18;;
75864;SDS011;64510;46.704;38.274;2023-04-25T12:41:05;11.40;;;7.35;;
75864;SDS011;64510;46.704;38.274;2023-04-25T12:43:32;8.75;;;6.60;;
75864;SDS011;64510;46.704;38.274;2023-04-25T12:45:58;10.40;;;5.28;;
75864;SDS011;64510;46.704;38.274;2023-04-25T12:48:24;9.88;;;5.95;;
75864;SDS011;64510;46.704;38.274;2023-04-25T12:50:50;14.27;;;6.65;;
75864;SDS011;64510;46.704;38.274;2023-04-25T12:53:20;9.90;;;6.20;;
75864;SDS011;64510;46.704;38.274;2023-04-25T12:55:47;8.80;;;6.60;;
75864;SDS011;64510;46.704;38.274;2023-04-25T12:58:14;8.95;;;5.65;;
75864;SDS011;64510;46.704;38.274;2023-04-25T13:00:41;7.80;;;6.40;;
75864;SDS011;64510;46.704;38.274;2023-04-25T13:03:08;8.60;;;6.75;;
75864;SDS011;64510;46.704;38.274;2023-04-25T13:05:36;8.43;;;6.32;;
75864;SDS011;64510;46.704;38.274;2023-04-25T13:08:02;9.88;;;5.97;;
75864;SDS011;64510;46.704;38.274;2023-04-25T13:10:29;12.02;;;5.97;;
75864;SDS011;64510;46.704;38.274;2023-04-25T13:12:55;9.35;;;6.47;;
75864;SDS011;64510;46.704;38.274;2023-04-25T13:15:21;9.80;;;6.78;;
75864;SDS011;64510;46.704;38.274;2023-04-25T13:17:48;7.40;;;5.80;;
75864;SDS011;64510;46.704;38.274;2023-04-25T13:20:14;8.43;;;6.65;;
75864;SDS011;64510;46.704;38.274;2023-04-25T13:22:41;7.95;;;6.25;;
75864;SDS011;64510;46.704;38.274;2023-04-25T13:25:07;10.77;;;7.88;;
75864;SDS011;64510;46.704;38.274;2023-04-25T13:27:34;9.27;;;6.35;;
75864;SDS011;64510;46.704;38.274;2023-04-25T13:30:01;7.53;;;6.28;;
75864;SDS011;64510;46.704;38.274;2023-04-25T13:32:33;8.85;;;5.65;;
75864;SDS011;64510;46.704;38.274;2023-04-25T13:35:01;8.15;;;5.45;;
75864;SDS011;64510;46.704;38.274;2023-04-25T13:37:27;9.70;;;6.35;;
75864;SDS011;64510;46.704;38.274;2023-04-25T13:39:55;8.60;;;6.07;;
75864;SDS011;64510;46.704;38.274;2023-04-25T13:42:22;8.80;;;6.55;;
75864;SDS011;64510;46.704;38.274;2023-04-25T13:44:48;9.98;;;6.53;;
75864;SDS011;64510;46.704;38.274;2023-04-25T13:47:14;12.05;;;6.13;;
75864;SDS011;64510;46.704;38.274;2023-04-25T13:49:40;8.50;;;6.88;;
75864;SDS011;64510;46.704;38.274;2023-04-25T13:52:06;9.43;;;6.18;;
75864;SDS011;64510;46.704;38.274;2023-04-25T13:54:33;9.77;;;6.35;;
75864;SDS011;64510;46.704;38.274;2023-04-25T13:56:59;11.25;;;5.95;;
75864;SDS011;64510;46.704;38.274;2023-04-25T13:59:25;14.80;;;6.90;;
75864;SDS011;64510;46.704;38.274;2023-04-25T14:01:51;8.88;;;6.47;;
75864;SDS011;64510;46.704;38.274;2023-04-25T14:04:17;10.05;;;6.78;;
75864;SDS011;64510;46.704;38.274;2023-04-25T14:06:43;12.02;;;7.85;;
75864;SDS011;64510;46.704;38.274;2023-04-25T14:09:09;11.00;;;7.15;;
75864;SDS011;64510;46.704;38.274;2023-04-25T14:11:38;7.13;;;6.00;;
75864;SDS011;64510;46.704;38.274;2023-04-25T14:14:04;8.20;;;6.57;;
75864;SDS011;64510;46.704;38.274;2023-04-25T14:16:30;11.32;;;7.78;;
75864;SDS011;64510;46.704;38.274;2023-04-25T14:19:00;7.55;;;5.55;;
75864;SDS011;64510;46.704;38.274;2023-04-25T14:21:26;16.23;;;7.93;;
75864;SDS011;64510;46.704;38.274;2023-04-25T14:23:53;15.68;;;8.98;;
75864;SDS011;64510;46.704;38.274;2023-04-25T14:26:19;11.50;;;8.20;;
75864;SDS011;64510;46.704;38.274;2023-04-25T14:28:45;14.43;;;8.68;;
75864;SDS011;64510;46.704;38.274;2023-04-25T14:31:11;12.70;;;7.38;;
75864;SDS011;64510;46.704;38.274;2023-04-25T14:33:37;13.43;;;7.78;;
75864;SDS011;64510;46.704;38.274;2023-04-25T14:36:06;16.98;;;8.43;;
75864;SDS011;64510;46.704;38.274;2023-04-25T14:38:33;11.27;;;7.03;;
75864;SDS011;64510;46.704;38.274;2023-04-25T14:40:58;11.32;;;7.85;;
75864;SDS011;64510;46.704;38.274;2023-04-25T14:43:24;21.95;;;10.93;;
75864;SDS011;64510;46.704;38.274;2023-04-25T14:45:50;14.90;;;8.38;;
75864;SDS011;64510;46.704;38.274;2023-04-25T14:48:17;14.80;;;8.23;;
75864;SDS011;64510;46.704;38.274;2023-04-25T14:50:45;14.10;;;7.93;;
75864;SDS011;64510;46.704;38.274;2023-04-25T14:53:11;18.77;;;10.23;;
75864;SDS011;64510;46.704;38.274;2023-04-25T14:55:37;13.60;;;8.80;;
75864;SDS011;64510;46.704;38.274;2023-04-25T14:58:04;15.70;;;9.07;;
75864;SDS011;64510;46.704;38.274;2023-04-25T15:00:30;16.60;;;8.95;;
75864;SDS011;64510;46.704;38.274;2023-04-25T15:02:57;11.63;;;7.95;;
75864;SDS011;64510;46.704;38.274;2023-04-25T15:05:23;12.20;;;7.93;;